sensor_id;sensor_type;location;lat;lon;timestamp;temperature;humidity
19385;DHT22;9828;54.122;17.974;2023-02-04T00:02:35;-0.50;1.00
19385;DHT22;9828;54.122;17.974;2023-02-04T00:07:58;-0.40;1.00
19385;DHT22;9828;54.122;17.974;2023-02-04T00:13:19;-0.40;1.00
19385;DHT22;9828;54.122;17.974;2023-02-04T00:18:40;-0.30;1.00
19385;DHT22;9828;54.122;17.974;2023-02-04T00:24:02;-0.30;3.40
19385;DHT22;9828;54.122;17.974;2023-02-04T00:29:24;-0.30;19.90
19385;DHT22;9828;54.122;17.974;2023-02-04T00:34:46;-0.20;26.70
19385;DHT22;9828;54.122;17.974;2023-02-04T00:40:07;-0.10;33.30
19385;DHT22;9828;54.122;17.974;2023-02-04T00:45:29;-0.10;41.00
19385;DHT22;9828;54.122;17.974;2023-02-04T00:50:50;-0.10;41.10
19385;DHT22;9828;54.122;17.974;2023-02-04T00:56:12;-0.20;48.00
19385;DHT22;9828;54.122;17.974;2023-02-04T01:01:34;-0.20;53.40
19385;DHT22;9828;54.122;17.974;2023-02-04T01:06:55;-0.10;72.10
19385;DHT22;9828;54.122;17.974;2023-02-04T01:12:17;0.00;52.40
19385;DHT22;9828;54.122;17.974;2023-02-04T01:17:38;0.10;45.50
19385;DHT22;9828;54.122;17.974;2023-02-04T01:22:59;0.10;33.60
19385;DHT22;9828;54.122;17.974;2023-02-04T01:28:20;0.20;14.70
19385;DHT22;9828;54.122;17.974;2023-02-04T01:33:42;0.20;1.00
19385;DHT22;9828;54.122;17.974;2023-02-04T01:39:04;0.00;1.00
19385;DHT22;9828;54.122;17.974;2023-02-04T01:44:27;-0.20;1.00
19385;DHT22;9828;54.122;17.974;2023-02-04T01:49:51;-0.30;1.00
19385;DHT22;9828;54.122;17.974;2023-02-04T01:55:18;-0.40;1.00
19385;DHT22;9828;54.122;17.974;2023-02-04T02:00:40;-0.60;1.00
19385;DHT22;9828;54.122;17.974;2023-02-04T02:06:02;-0.70;1.00
19385;DHT22;9828;54.122;17.974;2023-02-04T02:11:25;-0.90;1.00
19385;DHT22;9828;54.122;17.974;2023-02-04T02:16:46;-1.00;1.00
19385;DHT22;9828;54.122;17.974;2023-02-04T02:22:30;-1.10;1.00
19385;DHT22;9828;54.122;17.974;2023-02-04T02:27:54;-1.20;1.00
19385;DHT22;9828;54.122;17.974;2023-02-04T02:33:18;-1.10;1.00
19385;DHT22;9828;54.122;17.974;2023-02-04T02:38:39;-1.00;1.00
19385;DHT22;9828;54.122;17.974;2023-02-04T02:44:01;-0.90;1.00
19385;DHT22;9828;54.122;17.974;2023-02-04T02:49:25;-0.70;1.00
19385;DHT22;9828;54.122;17.974;2023-02-04T02:54:47;-0.60;1.00
19385;DHT22;9828;54.122;17.974;2023-02-04T03:00:16;-0.50;1.00
19385;DHT22;9828;54.122;17.974;2023-02-04T03:05:41;-0.50;1.00
19385;DHT22;9828;54.122;17.974;2023-02-04T03:11:04;-0.50;1.00
19385;DHT22;9828;54.122;17.974;2023-02-04T03:16:27;-0.50;1.00
19385;DHT22;9828;54.122;17.974;2023-02-04T03:21:49;-0.50;1.00
19385;DHT22;9828;54.122;17.974;2023-02-04T03:27:10;-0.60;1.00
19385;DHT22;9828;54.122;17.974;2023-02-04T03:32:32;-0.60;1.00
19385;DHT22;9828;54.122;17.974;2023-02-04T03:37:53;-0.60;1.00
19385;DHT22;9828;54.122;17.974;2023-02-04T03:43:14;-0.60;1.00
19385;DHT22;9828;54.122;17.974;2023-02-04T03:48:36;-0.60;1.00
19385;DHT22;9828;54.122;17.974;2023-02-04T03:53:57;-0.50;1.00
19385;DHT22;9828;54.122;17.974;2023-02-04T03:59:18;-0.50;1.00
19385;DHT22;9828;54.122;17.974;2023-02-04T04:04:40;-0.60;1.00
19385;DHT22;9828;54.122;17.974;2023-02-04T04:10:03;-0.50;1.00
19385;DHT22;9828;54.122;17.974;2023-02-04T04:15:24;-0.60;1.00
19385;DHT22;9828;54.122;17.974;2023-02-04T04:20:46;-0.50;1.00
19385;DHT22;9828;54.122;17.974;2023-02-04T04:26:07;-0.50;8.70
19385;DHT22;9828;54.122;17.974;2023-02-04T04:31:28;-0.50;24.20
19385;DHT22;9828;54.122;17.974;2023-02-04T04:36:49;-0.40;27.20
19385;DHT22;9828;54.122;17.974;2023-02-04T04:42:11;-0.40;17.70
19385;DHT22;9828;54.122;17.974;2023-02-04T04:47:32;-0.50;23.70
19385;DHT22;9828;54.122;17.974;2023-02-04T04:52:53;-0.60;32.80
19385;DHT22;9828;54.122;17.974;2023-02-04T04:58:14;-0.50;25.20
19385;DHT22;9828;54.122;17.974;2023-02-04T05:03:36;-0.60;17.40
19385;DHT22;9828;54.122;17.974;2023-02-04T05:08:57;-0.70;20.90
19385;DHT22;9828;54.122;17.974;2023-02-04T05:14:18;-0.80;10.60
19385;DHT22;9828;54.122;17.974;2023-02-04T05:19:40;-0.90;1.00
19385;DHT22;9828;54.122;17.974;2023-02-04T05:25:01;-0.80;1.00
19385;DHT22;9828;54.122;17.974;2023-02-04T05:30:22;-0.90;1.00
19385;DHT22;9828;54.122;17.974;2023-02-04T05:35:43;-1.00;1.00
19385;DHT22;9828;54.122;17.974;2023-02-04T05:41:05;-1.00;1.00
19385;DHT22;9828;54.122;17.974;2023-02-04T05:46:26;-1.10;1.00
19385;DHT22;9828;54.122;17.974;2023-02-04T05:51:47;-1.20;1.00
19385;DHT22;9828;54.122;17.974;2023-02-04T05:57:08;-1.30;1.00
19385;DHT22;9828;54.122;17.974;2023-02-04T06:02:30;-1.30;1.00
19385;DHT22;9828;54.122;17.974;2023-02-04T06:07:51;-1.20;1.00
19385;DHT22;9828;54.122;17.974;2023-02-04T06:13:12;-1.10;1.00
19385;DHT22;9828;54.122;17.974;2023-02-04T06:18:33;-1.10;13.40
19385;DHT22;9828;54.122;17.974;2023-02-04T06:23:55;-1.00;31.30
19385;DHT22;9828;54.122;17.974;2023-02-04T06:29:17;-1.00;46.00
19385;DHT22;9828;54.122;17.974;2023-02-04T06:34:38;-1.00;23.00
19385;DHT22;9828;54.122;17.974;2023-02-04T06:39:59;-0.90;21.10
19385;DHT22;9828;54.122;17.974;2023-02-04T06:45:20;-0.90;28.10
19385;DHT22;9828;54.122;17.974;2023-02-04T06:50:43;-0.90;30.00
19385;DHT22;9828;54.122;17.974;2023-02-04T06:56:04;-0.70;10.40
19385;DHT22;9828;54.122;17.974;2023-02-04T07:01:25;-0.80;1.00
19385;DHT22;9828;54.122;17.974;2023-02-04T07:06:46;-0.70;1.00
19385;DHT22;9828;54.122;17.974;2023-02-04T07:12:08;-0.80;1.00
19385;DHT22;9828;54.122;17.974;2023-02-04T07:17:29;-0.70;1.00
19385;DHT22;9828;54.122;17.974;2023-02-04T07:22:50;-0.40;1.00
19385;DHT22;9828;54.122;17.974;2023-02-04T07:28:12;-0.40;1.00
19385;DHT22;9828;54.122;17.974;2023-02-04T07:33:33;-0.30;1.00
19385;DHT22;9828;54.122;17.974;2023-02-04T07:38:54;0.40;1.00
19385;DHT22;9828;54.122;17.974;2023-02-04T07:44:15;1.40;1.00
19385;DHT22;9828;54.122;17.974;2023-02-04T07:49:37;1.70;99.90
19385;DHT22;9828;54.122;17.974;2023-02-04T07:54:58;1.70;99.90
19385;DHT22;9828;54.122;17.974;2023-02-04T08:00:20;1.50;99.90
19385;DHT22;9828;54.122;17.974;2023-02-04T08:05:42;1.60;99.90
19385;DHT22;9828;54.122;17.974;2023-02-04T08:11:03;2.00;99.90
19385;DHT22;9828;54.122;17.974;2023-02-04T08:16:25;1.90;99.90
19385;DHT22;9828;54.122;17.974;2023-02-04T08:21:46;1.90;99.90
19385;DHT22;9828;54.122;17.974;2023-02-04T08:27:08;1.70;99.90
19385;DHT22;9828;54.122;17.974;2023-02-04T08:32:29;1.50;99.90
19385;DHT22;9828;54.122;17.974;2023-02-04T08:37:51;1.70;99.90
19385;DHT22;9828;54.122;17.974;2023-02-04T08:43:13;1.50;99.90
19385;DHT22;9828;54.122;17.974;2023-02-04T08:48:35;1.30;99.90
19385;DHT22;9828;54.122;17.974;2023-02-04T08:53:57;1.20;99.90
19385;DHT22;9828;54.122;17.974;2023-02-04T08:59:18;1.20;99.90
19385;DHT22;9828;54.122;17.974;2023-02-04T09:04:39;1.30;99.90
19385;DHT22;9828;54.122;17.974;2023-02-04T09:10:01;1.20;99.90
19385;DHT22;9828;54.122;17.974;2023-02-04T09:15:23;1.60;99.90
19385;DHT22;9828;54.122;17.974;2023-02-04T09:20:44;1.80;99.90
19385;DHT22;9828;54.122;17.974;2023-02-04T09:26:06;1.60;99.90
19385;DHT22;9828;54.122;17.974;2023-02-04T09:31:27;1.60;99.90
19385;DHT22;9828;54.122;17.974;2023-02-04T09:36:48;1.60;99.90
19385;DHT22;9828;54.122;17.974;2023-02-04T09:48:12;1.90;99.90
19385;DHT22;9828;54.122;17.974;2023-02-04T09:53:39;2.00;99.90
19385;DHT22;9828;54.122;17.974;2023-02-04T09:59:05;2.00;99.90
19385;DHT22;9828;54.122;17.974;2023-02-04T10:04:29;1.70;99.90
19385;DHT22;9828;54.122;17.974;2023-02-04T10:09:51;1.40;99.90
19385;DHT22;9828;54.122;17.974;2023-02-04T10:15:15;1.40;99.90
19385;DHT22;9828;54.122;17.974;2023-02-04T10:20:39;1.30;99.90
19385;DHT22;9828;54.122;17.974;2023-02-04T10:26:02;1.30;99.90
19385;DHT22;9828;54.122;17.974;2023-02-04T10:31:33;1.20;99.90
19385;DHT22;9828;54.122;17.974;2023-02-04T10:36:56;1.20;99.90
19385;DHT22;9828;54.122;17.974;2023-02-04T10:42:26;1.40;99.90
19385;DHT22;9828;54.122;17.974;2023-02-04T10:47:50;1.90;99.90
19385;DHT22;9828;54.122;17.974;2023-02-04T10:53:15;2.60;99.90
19385;DHT22;9828;54.122;17.974;2023-02-04T10:58:56;2.70;99.90
19385;DHT22;9828;54.122;17.974;2023-02-04T11:04:17;2.30;99.90
19385;DHT22;9828;54.122;17.974;2023-02-04T11:09:42;1.70;99.90
19385;DHT22;9828;54.122;17.974;2023-02-04T11:15:04;1.60;99.90
19385;DHT22;9828;54.122;17.974;2023-02-04T11:20:30;1.80;99.90
19385;DHT22;9828;54.122;17.974;2023-02-04T11:26:15;2.30;99.90
19385;DHT22;9828;54.122;17.974;2023-02-04T11:32:04;2.20;99.90
19385;DHT22;9828;54.122;17.974;2023-02-04T11:43:02;1.30;99.90
19385;DHT22;9828;54.122;17.974;2023-02-04T11:48:24;3.30;99.90
19385;DHT22;9828;54.122;17.974;2023-02-04T11:53:50;5.90;98.30
19385;DHT22;9828;54.122;17.974;2023-02-04T11:59:12;6.80;92.40
19385;DHT22;9828;54.122;17.974;2023-02-04T12:04:34;5.70;93.70
19385;DHT22;9828;54.122;17.974;2023-02-04T12:09:56;5.90;96.40
19385;DHT22;9828;54.122;17.974;2023-02-04T12:15:32;7.70;79.20
19385;DHT22;9828;54.122;17.974;2023-02-04T12:20:56;9.50;35.50
19385;DHT22;9828;54.122;17.974;2023-02-04T12:26:17;10.10;27.80
19385;DHT22;9828;54.122;17.974;2023-02-04T12:31:39;10.60;99.90
19385;DHT22;9828;54.122;17.974;2023-02-04T12:37:00;11.00;99.90
19385;DHT22;9828;54.122;17.974;2023-02-04T12:42:22;9.90;25.60
19385;DHT22;9828;54.122;17.974;2023-02-04T12:47:43;8.10;1.00
19385;DHT22;9828;54.122;17.974;2023-02-04T12:53:04;5.80;1.00
19385;DHT22;9828;54.122;17.974;2023-02-04T12:58:26;4.30;37.10
19385;DHT22;9828;54.122;17.974;2023-02-04T13:03:47;3.10;99.90
19385;DHT22;9828;54.122;17.974;2023-02-04T13:09:08;2.50;99.90
19385;DHT22;9828;54.122;17.974;2023-02-04T13:14:29;3.70;99.90
19385;DHT22;9828;54.122;17.974;2023-02-04T13:19:52;5.20;95.10
19385;DHT22;9828;54.122;17.974;2023-02-04T13:25:14;5.70;70.90
19385;DHT22;9828;54.122;17.974;2023-02-04T13:30:35;4.90;88.40
19385;DHT22;9828;54.122;17.974;2023-02-04T13:35:57;4.40;92.90
19385;DHT22;9828;54.122;17.974;2023-02-04T13:41:18;3.90;97.00
19385;DHT22;9828;54.122;17.974;2023-02-04T13:46:40;3.70;97.60
19385;DHT22;9828;54.122;17.974;2023-02-04T13:52:01;3.80;98.50
19385;DHT22;9828;54.122;17.974;2023-02-04T13:57:23;4.00;97.70
19385;DHT22;9828;54.122;17.974;2023-02-04T14:02:45;3.90;96.00
19385;DHT22;9828;54.122;17.974;2023-02-04T14:08:08;3.40;98.50
19385;DHT22;9828;54.122;17.974;2023-02-04T14:13:30;3.00;99.60
19385;DHT22;9828;54.122;17.974;2023-02-04T14:18:51;2.60;99.90
19385;DHT22;9828;54.122;17.974;2023-02-04T14:24:12;2.30;99.90
19385;DHT22;9828;54.122;17.974;2023-02-04T14:29:34;1.70;99.90
19385;DHT22;9828;54.122;17.974;2023-02-04T14:34:55;1.30;99.90
19385;DHT22;9828;54.122;17.974;2023-02-04T14:40:18;1.10;99.90
19385;DHT22;9828;54.122;17.974;2023-02-04T14:45:40;0.70;99.90
19385;DHT22;9828;54.122;17.974;2023-02-04T14:51:01;0.50;99.90
19385;DHT22;9828;54.122;17.974;2023-02-04T14:56:22;0.40;99.90
19385;DHT22;9828;54.122;17.974;2023-02-04T15:01:43;0.20;99.90
19385;DHT22;9828;54.122;17.974;2023-02-04T15:07:06;0.10;99.90
19385;DHT22;9828;54.122;17.974;2023-02-04T15:12:28;0.10;99.90
19385;DHT22;9828;54.122;17.974;2023-02-04T15:17:49;0.20;99.90
19385;DHT22;9828;54.122;17.974;2023-02-04T15:23:10;0.20;99.90
19385;DHT22;9828;54.122;17.974;2023-02-04T15:28:32;0.10;99.90
19385;DHT22;9828;54.122;17.974;2023-02-04T15:33:54;0.10;99.90
19385;DHT22;9828;54.122;17.974;2023-02-04T15:39:15;0.10;99.90
19385;DHT22;9828;54.122;17.974;2023-02-04T15:44:36;0.00;99.90
19385;DHT22;9828;54.122;17.974;2023-02-04T15:49:58;-0.20;99.90
19385;DHT22;9828;54.122;17.974;2023-02-04T15:55:19;-0.30;99.90
19385;DHT22;9828;54.122;17.974;2023-02-04T16:00:41;-0.30;99.90
19385;DHT22;9828;54.122;17.974;2023-02-04T16:06:03;-0.30;99.90
19385;DHT22;9828;54.122;17.974;2023-02-04T16:11:24;-0.30;99.90
19385;DHT22;9828;54.122;17.974;2023-02-04T16:16:46;-0.30;99.90
19385;DHT22;9828;54.122;17.974;2023-02-04T16:22:07;-0.30;99.90
19385;DHT22;9828;54.122;17.974;2023-02-04T16:27:28;-0.40;99.90
19385;DHT22;9828;54.122;17.974;2023-02-04T16:32:51;-0.40;99.90
19385;DHT22;9828;54.122;17.974;2023-02-04T16:38:18;-0.40;99.90
19385;DHT22;9828;54.122;17.974;2023-02-04T16:43:44;-0.50;99.90
19385;DHT22;9828;54.122;17.974;2023-02-04T16:49:07;-0.60;99.90
19385;DHT22;9828;54.122;17.974;2023-02-04T16:54:28;-0.80;99.90
19385;DHT22;9828;54.122;17.974;2023-02-04T17:00:00;-0.60;99.90
19385;DHT22;9828;54.122;17.974;2023-02-04T17:05:21;-0.50;99.90
19385;DHT22;9828;54.122;17.974;2023-02-04T17:10:43;-0.50;99.90
19385;DHT22;9828;54.122;17.974;2023-02-04T17:16:22;-0.40;99.90
19385;DHT22;9828;54.122;17.974;2023-02-04T17:21:44;-0.40;99.90
19385;DHT22;9828;54.122;17.974;2023-02-04T17:27:05;-0.30;99.90
19385;DHT22;9828;54.122;17.974;2023-02-04T17:32:27;-0.30;99.90
19385;DHT22;9828;54.122;17.974;2023-02-04T17:37:49;-0.30;99.90
19385;DHT22;9828;54.122;17.974;2023-02-04T17:43:10;-0.30;99.90
19385;DHT22;9828;54.122;17.974;2023-02-04T17:48:32;-0.50;99.90
19385;DHT22;9828;54.122;17.974;2023-02-04T17:53:53;-0.50;99.90
19385;DHT22;9828;54.122;17.974;2023-02-04T17:59:15;-0.50;99.90
19385;DHT22;9828;54.122;17.974;2023-02-04T18:04:37;-0.50;99.90
19385;DHT22;9828;54.122;17.974;2023-02-04T18:10:29;-0.50;99.90
19385;DHT22;9828;54.122;17.974;2023-02-04T18:15:54;-0.50;99.90
19385;DHT22;9828;54.122;17.974;2023-02-04T18:21:30;-0.50;99.90
19385;DHT22;9828;54.122;17.974;2023-02-04T18:26:53;-0.40;99.90
19385;DHT22;9828;54.122;17.974;2023-02-04T18:37:45;-0.40;99.90
19385;DHT22;9828;54.122;17.974;2023-02-04T18:43:42;-0.50;99.90
19385;DHT22;9828;54.122;17.974;2023-02-04T18:49:25;-0.60;99.90
19385;DHT22;9828;54.122;17.974;2023-02-04T18:54:51;-0.60;99.90
19385;DHT22;9828;54.122;17.974;2023-02-04T19:00:26;-0.60;99.90
19385;DHT22;9828;54.122;17.974;2023-02-04T19:05:48;-0.60;99.90
19385;DHT22;9828;54.122;17.974;2023-02-04T19:11:35;-0.50;99.90
19385;DHT22;9828;54.122;17.974;2023-02-04T19:22:46;-0.80;99.90
19385;DHT22;9828;54.122;17.974;2023-02-04T19:28:33;-0.90;99.90
19385;DHT22;9828;54.122;17.974;2023-02-04T19:33:56;-1.00;99.90
19385;DHT22;9828;54.122;17.974;2023-02-04T19:39:28;-1.00;99.90
19385;DHT22;9828;54.122;17.974;2023-02-04T19:44:50;-1.10;99.90
19385;DHT22;9828;54.122;17.974;2023-02-04T19:50:28;-1.20;99.90
19385;DHT22;9828;54.122;17.974;2023-02-04T19:55:51;-1.30;99.90
19385;DHT22;9828;54.122;17.974;2023-02-04T20:01:16;-1.40;99.90
19385;DHT22;9828;54.122;17.974;2023-02-04T20:06:42;-1.50;99.90
19385;DHT22;9828;54.122;17.974;2023-02-04T20:12:12;-1.60;99.90
19385;DHT22;9828;54.122;17.974;2023-02-04T20:17:36;-1.80;99.90
19385;DHT22;9828;54.122;17.974;2023-02-04T20:22:59;-1.90;99.90
19385;DHT22;9828;54.122;17.974;2023-02-04T20:33:57;-2.00;99.90
19385;DHT22;9828;54.122;17.974;2023-02-04T20:40:00;-2.10;99.90
19385;DHT22;9828;54.122;17.974;2023-02-04T20:45:54;-2.10;99.90
19385;DHT22;9828;54.122;17.974;2023-02-04T20:51:21;-2.10;99.90
19385;DHT22;9828;54.122;17.974;2023-02-04T20:56:43;-2.10;99.90
19385;DHT22;9828;54.122;17.974;2023-02-04T21:02:15;-2.00;99.90
19385;DHT22;9828;54.122;17.974;2023-02-04T21:07:37;-2.20;99.90
19385;DHT22;9828;54.122;17.974;2023-02-04T21:12:58;-2.20;99.90
19385;DHT22;9828;54.122;17.974;2023-02-04T21:18:22;-2.30;99.90
19385;DHT22;9828;54.122;17.974;2023-02-04T21:23:43;-2.40;99.90
19385;DHT22;9828;54.122;17.974;2023-02-04T21:29:05;-2.50;99.90
19385;DHT22;9828;54.122;17.974;2023-02-04T21:34:26;-2.50;99.90
19385;DHT22;9828;54.122;17.974;2023-02-04T21:39:47;-2.50;99.90
19385;DHT22;9828;54.122;17.974;2023-02-04T21:45:10;-2.60;99.90
19385;DHT22;9828;54.122;17.974;2023-02-04T21:50:32;-2.60;99.90
19385;DHT22;9828;54.122;17.974;2023-02-04T21:55:53;-2.70;99.90
19385;DHT22;9828;54.122;17.974;2023-02-04T22:01:15;-2.70;99.90
19385;DHT22;9828;54.122;17.974;2023-02-04T22:06:36;-2.80;99.90
19385;DHT22;9828;54.122;17.974;2023-02-04T22:23:03;-3.10;99.90
19385;DHT22;9828;54.122;17.974;2023-02-04T22:28:25;-3.20;99.90
19385;DHT22;9828;54.122;17.974;2023-02-04T22:33:46;-3.10;99.90
19385;DHT22;9828;54.122;17.974;2023-02-04T22:39:07;-3.10;99.90
19385;DHT22;9828;54.122;17.974;2023-02-04T22:44:28;-3.20;99.90
19385;DHT22;9828;54.122;17.974;2023-02-04T22:49:50;-3.20;99.90
19385;DHT22;9828;54.122;17.974;2023-02-04T22:55:12;-3.30;99.90
19385;DHT22;9828;54.122;17.974;2023-02-04T23:00:33;-3.30;99.90
19385;DHT22;9828;54.122;17.974;2023-02-04T23:05:54;-3.50;99.90
19385;DHT22;9828;54.122;17.974;2023-02-04T23:11:16;-3.60;99.90
19385;DHT22;9828;54.122;17.974;2023-02-04T23:16:38;-3.80;99.90
19385;DHT22;9828;54.122;17.974;2023-02-04T23:21:59;-3.90;99.90
19385;DHT22;9828;54.122;17.974;2023-02-04T23:27:21;-4.10;99.90
19385;DHT22;9828;54.122;17.974;2023-02-04T23:32:42;-4.20;99.90
19385;DHT22;9828;54.122;17.974;2023-02-04T23:44:21;-4.10;99.90
19385;DHT22;9828;54.122;17.974;2023-02-04T23:49:42;-4.00;99.90
19385;DHT22;9828;54.122;17.974;2023-02-04T23:55:04;-3.90;99.90
